Flugplatz Schwäbisch Hall-Weckrieden

Für EDTX sind keine METAR/TAF Berichte vorhanden.
Es werden die Flugwettermeldungen vom Flugplatz Adolf Würth in 0 km Entfernung angezeigt.

Bericht für EDTY

vom 12.08. um 00:20 UTC

Wind 9 kt aus 90°

Sichtweite 10 km oder mehr

gering bewölkt in 1200 ft

aufgelockert bewölkt in 11000 ft

aufgebrochene Bewölkung in 16000 ft

Temperatur 20.0°C

Taupunkt 18.0°C

Luftfeuchtigkeit 88%

Luftdruck 1017 hPa

EDTY 120020Z AUTO 09009KT 9999 // FEW012/// SCT110/// BKN160/// 20/18 Q1017

Prognose für EDTY

vom 11.08. um 17:00 UTC

Am 11.08. zwischen 18:00 UTC und 03:00 UTC

Wind 10 kt aus 100°

Sichtweite 10 km oder mehr

gering bewölkt in 4500 ft


Am 11.08. zwischen 18:00 und 20:00 UTC übergehend zu

variable Windrichtung mit 3 kt

Sichtweite 10 km oder mehr

gering bewölkt in 4500 ft

TAF EDTY 111700Z 1118/1203 10010KT 9999 FEW045TCU BECMG 1118/1120 VRB03KT
Impressum